sensor_id;sensor_type;location;lat;lon;timestamp;pressure;altitude;pressure_sealevel;temperature;humidity
60465;BME280;46314;52.392;9.758;2023-03-04T00:02:14;101518.09;;;6.34;65.43
60465;BME280;46314;52.392;9.758;2023-03-04T00:04:41;101512.25;;;6.30;65.57
60465;BME280;46314;52.392;9.758;2023-03-04T00:07:08;101505.53;;;5.92;66.52
60465;BME280;46314;52.392;9.758;2023-03-04T00:09:35;101516.06;;;5.95;66.65
60465;BME280;46314;52.392;9.758;2023-03-04T00:12:01;101510.31;;;6.31;65.32
60465;BME280;46314;52.392;9.758;2023-03-04T00:14:28;101515.84;;;5.97;66.11
60465;BME280;46314;52.392;9.758;2023-03-04T00:16:56;101518.75;;;5.32;67.78
60465;BME280;46314;52.392;9.758;2023-03-04T00:19:22;101517.81;;;5.56;67.73
60465;BME280;46314;52.392;9.758;2023-03-04T00:21:50;101512.66;;;5.59;67.57
60465;BME280;46314;52.392;9.758;2023-03-04T00:24:16;101510.84;;;5.82;67.23
60465;BME280;46314;52.392;9.758;2023-03-04T00:26:43;101512.91;;;6.20;65.93
60465;BME280;46314;52.392;9.758;2023-03-04T00:29:09;101497.28;;;5.75;67.61
60465;BME280;46314;52.392;9.758;2023-03-04T00:31:35;101500.16;;;6.14;65.82
60465;BME280;46314;52.392;9.758;2023-03-04T00:34:02;101503.22;;;6.35;65.12
60465;BME280;46314;52.392;9.758;2023-03-04T00:36:28;101502.44;;;5.88;67.05
60465;BME280;46314;52.392;9.758;2023-03-04T00:38:56;101505.56;;;6.09;65.66
60465;BME280;46314;52.392;9.758;2023-03-04T00:41:22;101500.66;;;6.11;66.04
60465;BME280;46314;52.392;9.758;2023-03-04T00:43:49;101500.47;;;6.18;66.07
60465;BME280;46314;52.392;9.758;2023-03-04T00:46:16;101504.91;;;6.19;65.94
60465;BME280;46314;52.392;9.758;2023-03-04T00:48:42;101498.16;;;6.10;66.02
60465;BME280;46314;52.392;9.758;2023-03-04T00:51:08;101497.97;;;5.54;67.54
60465;BME280;46314;52.392;9.758;2023-03-04T00:53:35;101495.88;;;6.06;67.27
60465;BME280;46314;52.392;9.758;2023-03-04T00:56:03;101493.97;;;6.07;66.82
60465;BME280;46314;52.392;9.758;2023-03-04T00:58:29;101488.16;;;5.58;68.40
60465;BME280;46314;52.392;9.758;2023-03-04T01:00:56;101494.16;;;5.72;67.43
60465;BME280;46314;52.392;9.758;2023-03-04T01:03:22;101486.97;;;6.16;67.12
60465;BME280;46314;52.392;9.758;2023-03-04T01:05:48;101490.78;;;6.32;66.00
60465;BME280;46314;52.392;9.758;2023-03-04T01:08:15;101490.03;;;6.37;66.01
60465;BME280;46314;52.392;9.758;2023-03-04T01:10:41;101477.00;;;6.32;66.04
60465;BME280;46314;52.392;9.758;2023-03-04T01:13:09;101480.44;;;6.22;66.32
60465;BME280;46314;52.392;9.758;2023-03-04T01:15:35;101482.53;;;6.32;66.26
60465;BME280;46314;52.392;9.758;2023-03-04T01:18:02;101476.09;;;6.27;66.68
60465;BME280;46314;52.392;9.758;2023-03-04T01:20:28;101477.16;;;5.75;67.92
60465;BME280;46314;52.392;9.758;2023-03-04T01:22:55;101477.50;;;5.78;67.96
60465;BME280;46314;52.392;9.758;2023-03-04T01:25:21;101474.09;;;6.05;67.34
60465;BME280;46314;52.392;9.758;2023-03-04T01:27:48;101469.53;;;6.11;66.95
60465;BME280;46314;52.392;9.758;2023-03-04T01:30:16;101462.84;;;6.06;67.04
60465;BME280;46314;52.392;9.758;2023-03-04T01:32:42;101461.44;;;6.21;66.83
60465;BME280;46314;52.392;9.758;2023-03-04T01:35:09;101465.50;;;6.35;66.77
60465;BME280;46314;52.392;9.758;2023-03-04T01:37:35;101456.22;;;5.91;67.91
60465;BME280;46314;52.392;9.758;2023-03-04T01:40:02;101456.34;;;5.96;68.00
60465;BME280;46314;52.392;9.758;2023-03-04T01:42:31;101456.16;;;6.19;67.27
60465;BME280;46314;52.392;9.758;2023-03-04T01:44:58;101440.31;;;6.10;67.26
60465;BME280;46314;52.392;9.758;2023-03-04T01:47:28;101448.97;;;6.18;67.12
60465;BME280;46314;52.392;9.758;2023-03-04T01:49:57;101442.25;;;6.31;66.65
60465;BME280;46314;52.392;9.758;2023-03-04T01:52:26;101434.84;;;6.32;67.24
60465;BME280;46314;52.392;9.758;2023-03-04T01:54:53;101420.78;;;6.11;67.99
60465;BME280;46314;52.392;9.758;2023-03-04T01:57:21;101419.34;;;5.92;67.57
60465;BME280;46314;52.392;9.758;2023-03-04T02:00:16;101415.84;;;5.62;69.56
60465;BME280;46314;52.392;9.758;2023-03-04T02:02:45;101414.41;;;5.43;69.72
60465;BME280;46314;52.392;9.758;2023-03-04T02:05:12;101420.94;;;6.21;68.30
60465;BME280;46314;52.392;9.758;2023-03-04T02:07:39;101407.38;;;6.37;67.30
60465;BME280;46314;52.392;9.758;2023-03-04T02:10:06;101406.16;;;6.50;66.80
60465;BME280;46314;52.392;9.758;2023-03-04T02:12:33;101404.41;;;6.21;67.66
60465;BME280;46314;52.392;9.758;2023-03-04T02:14:59;101402.50;;;6.44;66.85
60465;BME280;46314;52.392;9.758;2023-03-04T02:17:27;101395.81;;;6.18;67.90
60465;BME280;46314;52.392;9.758;2023-03-04T02:19:58;101399.00;;;5.76;68.98
60465;BME280;46314;52.392;9.758;2023-03-04T02:22:27;101391.88;;;6.14;68.54
60465;BME280;46314;52.392;9.758;2023-03-04T02:24:56;101392.63;;;6.48;67.40
60465;BME280;46314;52.392;9.758;2023-03-04T02:27:26;101393.16;;;6.06;69.03
60465;BME280;46314;52.392;9.758;2023-03-04T02:29:52;101393.00;;;6.35;68.13
60465;BME280;46314;52.392;9.758;2023-03-04T02:32:18;101395.97;;;6.50;67.45
60465;BME280;46314;52.392;9.758;2023-03-04T02:34:46;101383.38;;;6.59;67.41
60465;BME280;46314;52.392;9.758;2023-03-04T02:37:14;101382.13;;;6.23;68.41
60465;BME280;46314;52.392;9.758;2023-03-04T02:39:42;101378.00;;;6.03;69.08
60465;BME280;46314;52.392;9.758;2023-03-04T02:42:09;101379.63;;;6.04;69.85
60465;BME280;46314;52.392;9.758;2023-03-04T02:44:38;101382.63;;;6.20;69.14
60465;BME280;46314;52.392;9.758;2023-03-04T02:47:07;101375.53;;;6.46;68.31
60465;BME280;46314;52.392;9.758;2023-03-04T02:49:35;101381.06;;;5.90;69.61
60465;BME280;46314;52.392;9.758;2023-03-04T02:52:03;101378.44;;;6.17;69.33
60465;BME280;46314;52.392;9.758;2023-03-04T02:54:30;101376.41;;;6.30;68.35
60465;BME280;46314;52.392;9.758;2023-03-04T02:57:00;101383.75;;;6.02;70.00
60465;BME280;46314;52.392;9.758;2023-03-04T02:59:27;101379.50;;;5.77;71.04
60465;BME280;46314;52.392;9.758;2023-03-04T03:01:55;101375.22;;;6.03;69.59
60465;BME280;46314;52.392;9.758;2023-03-04T03:04:22;101373.28;;;6.43;68.86
60465;BME280;46314;52.392;9.758;2023-03-04T03:06:49;101382.06;;;6.01;70.09
60465;BME280;46314;52.392;9.758;2023-03-04T03:09:16;101379.94;;;6.25;69.53
60465;BME280;46314;52.392;9.758;2023-03-04T03:11:42;101382.16;;;6.06;70.35
60465;BME280;46314;52.392;9.758;2023-03-04T03:14:09;101373.06;;;6.28;69.38
60465;BME280;46314;52.392;9.758;2023-03-04T03:16:35;101372.16;;;6.00;70.89
60465;BME280;46314;52.392;9.758;2023-03-04T03:19:03;101367.69;;;6.16;69.54
60465;BME280;46314;52.392;9.758;2023-03-04T03:21:30;101373.94;;;6.28;69.11
60465;BME280;46314;52.392;9.758;2023-03-04T03:23:56;101364.88;;;6.33;69.21
60465;BME280;46314;52.392;9.758;2023-03-04T03:26:23;101366.47;;;6.29;69.81
60465;BME280;46314;52.392;9.758;2023-03-04T03:28:49;101367.47;;;5.83;71.66
60465;BME280;46314;52.392;9.758;2023-03-04T03:31:16;101366.16;;;5.69;71.71
60465;BME280;46314;52.392;9.758;2023-03-04T03:33:42;101358.75;;;6.48;69.21
60465;BME280;46314;52.392;9.758;2023-03-04T03:36:10;101359.19;;;6.61;67.84
60465;BME280;46314;52.392;9.758;2023-03-04T03:38:37;101360.91;;;6.68;68.30
60465;BME280;46314;52.392;9.758;2023-03-04T03:41:04;101356.25;;;6.46;69.28
60465;BME280;46314;52.392;9.758;2023-03-04T03:43:30;101357.25;;;6.40;69.89
60465;BME280;46314;52.392;9.758;2023-03-04T03:45:56;101354.91;;;5.93;71.64
60465;BME280;46314;52.392;9.758;2023-03-04T03:48:23;101351.03;;;6.28;70.50
60465;BME280;46314;52.392;9.758;2023-03-04T03:50:49;101352.44;;;5.91;71.06
60465;BME280;46314;52.392;9.758;2023-03-04T03:53:17;101349.84;;;6.40;69.91
60465;BME280;46314;52.392;9.758;2023-03-04T03:55:43;101355.75;;;6.10;71.41
60465;BME280;46314;52.392;9.758;2023-03-04T03:58:10;101351.41;;;6.14;71.36
60465;BME280;46314;52.392;9.758;2023-03-04T04:00:36;101352.81;;;6.17;70.68
60465;BME280;46314;52.392;9.758;2023-03-04T04:03:02;101351.44;;;5.97;71.19
60465;BME280;46314;52.392;9.758;2023-03-04T04:05:29;101343.47;;;6.18;70.28
60465;BME280;46314;52.392;9.758;2023-03-04T04:07:55;101339.50;;;6.31;70.77
60465;BME280;46314;52.392;9.758;2023-03-04T04:10:23;101343.09;;;6.09;70.23
60465;BME280;46314;52.392;9.758;2023-03-04T04:12:49;101350.09;;;6.39;70.08
60465;BME280;46314;52.392;9.758;2023-03-04T04:15:16;101341.25;;;6.37;70.01
60465;BME280;46314;52.392;9.758;2023-03-04T04:17:42;101338.44;;;6.32;70.15
60465;BME280;46314;52.392;9.758;2023-03-04T04:20:10;101336.38;;;6.44;70.03
60465;BME280;46314;52.392;9.758;2023-03-04T04:22:36;101340.91;;;6.55;69.22
60465;BME280;46314;52.392;9.758;2023-03-04T04:25:04;101341.38;;;6.25;70.81
60465;BME280;46314;52.392;9.758;2023-03-04T04:27:31;101346.31;;;6.23;70.86
60465;BME280;46314;52.392;9.758;2023-03-04T04:29:58;101340.78;;;6.23;71.83
60465;BME280;46314;52.392;9.758;2023-03-04T04:32:24;101340.97;;;6.16;72.93
60465;BME280;46314;52.392;9.758;2023-03-04T04:34:51;101346.25;;;5.84;74.91
60465;BME280;46314;52.392;9.758;2023-03-04T04:37:17;101342.59;;;5.95;76.52
60465;BME280;46314;52.392;9.758;2023-03-04T04:39:43;101345.69;;;5.82;77.18
60465;BME280;46314;52.392;9.758;2023-03-04T04:42:10;101344.28;;;5.79;77.56
60465;BME280;46314;52.392;9.758;2023-03-04T04:44:38;101334.75;;;6.04;76.36
60465;BME280;46314;52.392;9.758;2023-03-04T04:47:04;101335.03;;;5.52;78.69
60465;BME280;46314;52.392;9.758;2023-03-04T04:49:31;101325.41;;;5.88;78.66
60465;BME280;46314;52.392;9.758;2023-03-04T04:51:57;101325.03;;;5.96;77.74
60465;BME280;46314;52.392;9.758;2023-03-04T04:54:24;101321.88;;;5.54;79.61
60465;BME280;46314;52.392;9.758;2023-03-04T04:56:50;101316.50;;;5.81;79.07
60465;BME280;46314;52.392;9.758;2023-03-04T04:59:17;101319.50;;;5.79;78.71
60465;BME280;46314;52.392;9.758;2023-03-04T05:01:44;101314.47;;;5.54;79.66
60465;BME280;46314;52.392;9.758;2023-03-04T05:04:11;101315.25;;;5.72;79.35
60465;BME280;46314;52.392;9.758;2023-03-04T05:06:37;101312.91;;;5.80;79.26
60465;BME280;46314;52.392;9.758;2023-03-04T05:09:04;101311.50;;;5.78;79.79
60465;BME280;46314;52.392;9.758;2023-03-04T05:11:30;101317.97;;;5.66;80.43
60465;BME280;46314;52.392;9.758;2023-03-04T05:13:57;101310.53;;;5.50;80.78
60465;BME280;46314;52.392;9.758;2023-03-04T05:16:23;101302.75;;;5.64;79.73
60465;BME280;46314;52.392;9.758;2023-03-04T05:18:51;101311.44;;;5.56;80.43
60465;BME280;46314;52.392;9.758;2023-03-04T05:21:18;101305.59;;;5.52;79.69
60465;BME280;46314;52.392;9.758;2023-03-04T05:23:44;101294.50;;;5.64;79.30
60465;BME280;46314;52.392;9.758;2023-03-04T05:26:13;101301.63;;;5.43;79.97
60465;BME280;46314;52.392;9.758;2023-03-04T05:28:40;101303.88;;;5.46;80.00
60465;BME280;46314;52.392;9.758;2023-03-04T05:31:06;101299.34;;;5.57;79.59
60465;BME280;46314;52.392;9.758;2023-03-04T05:33:33;101313.63;;;5.93;78.76
60465;BME280;46314;52.392;9.758;2023-03-04T05:36:01;101310.03;;;5.70;78.25
60465;BME280;46314;52.392;9.758;2023-03-04T05:38:27;101306.53;;;5.58;79.56
60465;BME280;46314;52.392;9.758;2023-03-04T05:40:58;101311.44;;;5.56;79.43
60465;BME280;46314;52.392;9.758;2023-03-04T05:43:26;101299.97;;;5.42;81.23
60465;BME280;46314;52.392;9.758;2023-03-04T05:45:52;101305.28;;;5.48;80.55
60465;BME280;46314;52.392;9.758;2023-03-04T05:48:19;101311.38;;;5.50;79.98
60465;BME280;46314;52.392;9.758;2023-03-04T05:50:45;101306.47;;;5.53;80.17
60465;BME280;46314;52.392;9.758;2023-03-04T05:53:13;101310.38;;;5.57;80.07
60465;BME280;46314;52.392;9.758;2023-03-04T05:55:39;101305.47;;;5.25;81.32
60465;BME280;46314;52.392;9.758;2023-03-04T05:58:06;101311.72;;;5.54;80.43
60465;BME280;46314;52.392;9.758;2023-03-04T06:00:32;101316.06;;;5.33;81.57
60465;BME280;46314;52.392;9.758;2023-03-04T06:02:59;101311.00;;;5.81;79.11
60465;BME280;46314;52.392;9.758;2023-03-04T06:05:25;101308.09;;;5.54;79.75
60465;BME280;46314;52.392;9.758;2023-03-04T06:07:52;101301.44;;;5.49;80.16
60465;BME280;46314;52.392;9.758;2023-03-04T06:10:20;101305.41;;;5.76;78.86
60465;BME280;46314;52.392;9.758;2023-03-04T06:12:46;101305.50;;;5.64;79.46
60465;BME280;46314;52.392;9.758;2023-03-04T06:15:13;101313.22;;;6.01;77.59
60465;BME280;46314;52.392;9.758;2023-03-04T06:17:41;101308.44;;;6.13;78.11
60465;BME280;46314;52.392;9.758;2023-03-04T06:20:10;101311.50;;;5.78;78.89
60465;BME280;46314;52.392;9.758;2023-03-04T06:22:36;101306.16;;;5.88;79.40
60465;BME280;46314;52.392;9.758;2023-03-04T06:25:03;101312.31;;;5.78;79.79
60465;BME280;46314;52.392;9.758;2023-03-04T06:27:31;101307.84;;;5.55;81.69
60465;BME280;46314;52.392;9.758;2023-03-04T06:29:58;101308.56;;;5.45;82.63
60465;BME280;46314;52.392;9.758;2023-03-04T06:32:24;101307.53;;;5.35;83.62
60465;BME280;46314;52.392;9.758;2023-03-04T06:34:51;101306.22;;;5.37;83.73
60465;BME280;46314;52.392;9.758;2023-03-04T06:37:18;101306.78;;;5.39;83.29
60465;BME280;46314;52.392;9.758;2023-03-04T06:39:44;101302.41;;;5.77;81.33
60465;BME280;46314;52.392;9.758;2023-03-04T06:42:11;101306.63;;;5.63;81.46
60465;BME280;46314;52.392;9.758;2023-03-04T06:44:39;101308.22;;;5.25;84.07
60465;BME280;46314;52.392;9.758;2023-03-04T06:47:06;101311.34;;;5.67;81.32
60465;BME280;46314;52.392;9.758;2023-03-04T06:49:32;101309.28;;;5.41;82.10
60465;BME280;46314;52.392;9.758;2023-03-04T06:51:59;101309.75;;;5.72;81.78
60465;BME280;46314;52.392;9.758;2023-03-04T06:54:25;101309.72;;;5.88;80.42
60465;BME280;46314;52.392;9.758;2023-03-04T06:56:51;101304.69;;;5.63;81.44
60465;BME280;46314;52.392;9.758;2023-03-04T06:59:18;101299.44;;;5.62;83.64
60465;BME280;46314;52.392;9.758;2023-03-04T07:01:45;101307.59;;;5.57;83.82
60465;BME280;46314;52.392;9.758;2023-03-04T07:04:12;101311.75;;;5.76;82.19
60465;BME280;46314;52.392;9.758;2023-03-04T07:06:39;101309.81;;;5.77;82.59
60465;BME280;46314;52.392;9.758;2023-03-04T07:09:06;101309.72;;;5.88;81.99
60465;BME280;46314;52.392;9.758;2023-03-04T07:11:32;101305.97;;;5.95;81.59
60465;BME280;46314;52.392;9.758;2023-03-04T07:13:59;101310.44;;;5.62;82.86
60465;BME280;46314;52.392;9.758;2023-03-04T07:16:25;101306.81;;;5.78;83.84
60465;BME280;46314;52.392;9.758;2023-03-04T07:18:53;101307.84;;;5.55;84.85
60465;BME280;46314;52.392;9.758;2023-03-04T07:21:19;101310.44;;;5.62;84.85
60465;BME280;46314;52.392;9.758;2023-03-04T07:23:46;101313.19;;;5.79;85.19
60465;BME280;46314;52.392;9.758;2023-03-04T07:26:13;101313.69;;;5.59;85.36
60465;BME280;46314;52.392;9.758;2023-03-04T07:28:39;101311.31;;;5.45;87.71
60465;BME280;46314;52.392;9.758;2023-03-04T07:31:10;101316.47;;;5.98;86.71
60465;BME280;46314;52.392;9.758;2023-03-04T07:33:38;101320.66;;;5.83;87.39
60465;BME280;46314;52.392;9.758;2023-03-04T07:36:06;101319.91;;;5.88;86.72
60465;BME280;46314;52.392;9.758;2023-03-04T07:38:32;101316.38;;;6.10;86.04
60465;BME280;46314;52.392;9.758;2023-03-04T07:40:59;101316.91;;;6.29;84.41
60465;BME280;46314;52.392;9.758;2023-03-04T07:43:26;101315.47;;;6.48;82.71
60465;BME280;46314;52.392;9.758;2023-03-04T07:45:57;101321.13;;;6.14;84.08
60465;BME280;46314;52.392;9.758;2023-03-04T07:48:24;101321.50;;;6.23;84.52
60465;BME280;46314;52.392;9.758;2023-03-04T07:51:01;101320.22;;;6.53;83.59
60465;BME280;46314;52.392;9.758;2023-03-04T07:53:29;101318.16;;;6.65;81.24
60465;BME280;46314;52.392;9.758;2023-03-04T07:55:56;101308.94;;;6.81;80.85
60465;BME280;46314;52.392;9.758;2023-03-04T07:58:22;101311.53;;;6.66;81.13
60465;BME280;46314;52.392;9.758;2023-03-04T08:00:49;101308.56;;;6.23;83.81
60465;BME280;46314;52.392;9.758;2023-03-04T08:03:15;101312.88;;;6.14;85.11
60465;BME280;46314;52.392;9.758;2023-03-04T08:05:42;101320.53;;;6.34;86.06
60465;BME280;46314;52.392;9.758;2023-03-04T08:08:08;101312.41;;;6.22;87.19
60465;BME280;46314;52.392;9.758;2023-03-04T08:10:36;101310.66;;;6.38;89.78
60465;BME280;46314;52.392;9.758;2023-03-04T08:13:02;101315.53;;;6.31;89.24
60465;BME280;46314;52.392;9.758;2023-03-04T08:15:28;101315.44;;;6.21;90.34
60465;BME280;46314;52.392;9.758;2023-03-04T08:17:55;101313.16;;;6.40;89.32
60465;BME280;46314;52.392;9.758;2023-03-04T08:20:21;101310.81;;;6.27;89.40
60465;BME280;46314;52.392;9.758;2023-03-04T08:22:48;101313.78;;;6.47;89.98
60465;BME280;46314;52.392;9.758;2023-03-04T08:25:14;101315.16;;;6.72;89.18
60465;BME280;46314;52.392;9.758;2023-03-04T08:27:42;101309.38;;;7.70;82.64
60465;BME280;46314;52.392;9.758;2023-03-04T08:30:10;101316.84;;;7.32;82.87
60465;BME280;46314;52.392;9.758;2023-03-04T08:32:36;101308.44;;;7.17;84.51
60465;BME280;46314;52.392;9.758;2023-03-04T08:35:04;101314.44;;;7.41;83.24
60465;BME280;46314;52.392;9.758;2023-03-04T08:37:30;101305.84;;;7.05;84.22
60465;BME280;46314;52.392;9.758;2023-03-04T08:39:57;101299.59;;;6.82;86.06
60465;BME280;46314;52.392;9.758;2023-03-04T08:42:23;101309.00;;;7.19;85.12
60465;BME280;46314;52.392;9.758;2023-03-04T08:44:51;101305.19;;;6.66;87.66
60465;BME280;46314;52.392;9.758;2023-03-04T08:47:18;101308.00;;;6.71;90.67
60465;BME280;46314;52.392;9.758;2023-03-04T08:49:45;101309.91;;;7.30;88.46
60465;BME280;46314;52.392;9.758;2023-03-04T08:52:11;101313.53;;;7.68;84.95
60465;BME280;46314;52.392;9.758;2023-03-04T08:54:38;101314.63;;;7.29;84.53
60465;BME280;46314;52.392;9.758;2023-03-04T08:57:04;101309.63;;;7.26;85.78
60465;BME280;46314;52.392;9.758;2023-03-04T08:59:30;101306.47;;;5.92;94.67
60465;BME280;46314;52.392;9.758;2023-03-04T09:01:58;101309.16;;;6.75;92.88
60465;BME280;46314;52.392;9.758;2023-03-04T09:04:24;101311.00;;;7.24;89.04
60465;BME280;46314;52.392;9.758;2023-03-04T09:06:51;101313.03;;;7.38;88.79
60465;BME280;46314;52.392;9.758;2023-03-04T09:09:19;101312.72;;;6.26;91.34
60465;BME280;46314;52.392;9.758;2023-03-04T09:11:45;101320.66;;;6.44;95.90
60465;BME280;46314;52.392;9.758;2023-03-04T09:14:12;101318.41;;;6.91;91.61
60465;BME280;46314;52.392;9.758;2023-03-04T09:16:38;101321.47;;;6.67;90.11
60465;BME280;46314;52.392;9.758;2023-03-04T09:19:06;101326.06;;;7.86;84.77
60465;BME280;46314;52.392;9.758;2023-03-04T09:21:32;101319.88;;;8.16;81.14
60465;BME280;46314;52.392;9.758;2023-03-04T09:23:59;101315.84;;;8.39;80.03
60465;BME280;46314;52.392;9.758;2023-03-04T09:26:27;101320.78;;;8.27;80.22
60465;BME280;46314;52.392;9.758;2023-03-04T09:28:55;101319.22;;;7.56;84.45
60465;BME280;46314;52.392;9.758;2023-03-04T09:31:22;101312.06;;;8.56;79.32
60465;BME280;46314;52.392;9.758;2023-03-04T09:33:49;101317.41;;;8.25;79.99
60465;BME280;46314;52.392;9.758;2023-03-04T09:36:17;101321.44;;;8.02;79.69
60465;BME280;46314;52.392;9.758;2023-03-04T09:38:44;101320.03;;;7.94;81.58
60465;BME280;46314;52.392;9.758;2023-03-04T09:41:15;101323.41;;;7.58;82.15
60465;BME280;46314;52.392;9.758;2023-03-04T09:43:43;101321.53;;;6.99;86.98
60465;BME280;46314;52.392;9.758;2023-03-04T09:46:13;101314.88;;;6.95;88.55
60465;BME280;46314;52.392;9.758;2023-03-04T09:48:43;101323.34;;;6.61;90.99
60465;BME280;46314;52.392;9.758;2023-03-04T09:51:21;101322.97;;;6.80;92.02
60465;BME280;46314;52.392;9.758;2023-03-04T09:53:55;101326.41;;;6.92;89.71
60465;BME280;46314;52.392;9.758;2023-03-04T09:56:26;101322.28;;;6.90;89.33
60465;BME280;46314;52.392;9.758;2023-03-04T09:58:59;101324.63;;;6.54;90.66
60465;BME280;46314;52.392;9.758;2023-03-04T10:01:33;101333.84;;;7.19;87.28
60465;BME280;46314;52.392;9.758;2023-03-04T10:04:05;101325.34;;;7.63;84.30
60465;BME280;46314;52.392;9.758;2023-03-04T10:06:39;101313.03;;;7.76;82.68
60465;BME280;46314;52.392;9.758;2023-03-04T10:09:12;101314.59;;;8.09;81.90
60465;BME280;46314;52.392;9.758;2023-03-04T10:11:42;101315.41;;;8.73;77.62
60465;BME280;46314;52.392;9.758;2023-03-04T10:14:26;101321.72;;;8.58;76.37
60465;BME280;46314;52.392;9.758;2023-03-04T10:16:58;101321.09;;;7.88;76.77
60465;BME280;46314;52.392;9.758;2023-03-04T10:19:30;101313.38;;;7.85;75.71
60465;BME280;46314;52.392;9.758;2023-03-04T10:22:14;101306.91;;;8.17;74.89
60465;BME280;46314;52.392;9.758;2023-03-04T10:24:44;101308.94;;;7.84;75.55
60465;BME280;46314;52.392;9.758;2023-03-04T10:27:11;101307.69;;;6.94;81.18
60465;BME280;46314;52.392;9.758;2023-03-04T10:29:40;101313.31;;;7.42;78.84
60465;BME280;46314;52.392;9.758;2023-03-04T10:32:10;101318.78;;;7.32;78.70
60465;BME280;46314;52.392;9.758;2023-03-04T10:34:37;101301.06;;;7.60;77.72
60465;BME280;46314;52.392;9.758;2023-03-04T10:37:06;101303.69;;;6.80;79.88
60465;BME280;46314;52.392;9.758;2023-03-04T10:39:34;101305.06;;;7.10;79.22
60465;BME280;46314;52.392;9.758;2023-03-04T10:42:02;101300.09;;;6.79;78.43
60465;BME280;46314;52.392;9.758;2023-03-04T10:44:31;101308.31;;;7.71;75.56
60465;BME280;46314;52.392;9.758;2023-03-04T10:46:57;101295.31;;;7.72;75.95
60465;BME280;46314;52.392;9.758;2023-03-04T10:49:25;101306.25;;;7.51;75.00
60465;BME280;46314;52.392;9.758;2023-03-04T10:51:54;101309.41;;;8.28;72.58
60465;BME280;46314;52.392;9.758;2023-03-04T10:54:28;101304.34;;;7.57;74.05
60465;BME280;46314;52.392;9.758;2023-03-04T10:56:59;101301.41;;;8.27;71.23
60465;BME280;46314;52.392;9.758;2023-03-04T10:59:32;101296.97;;;8.21;70.31
60465;BME280;46314;52.392;9.758;2023-03-04T11:02:00;101300.69;;;8.47;68.21
60465;BME280;46314;52.392;9.758;2023-03-04T11:04:31;101292.81;;;7.65;70.73
60465;BME280;46314;52.392;9.758;2023-03-04T11:06:58;101303.31;;;7.68;71.16
60465;BME280;46314;52.392;9.758;2023-03-04T11:09:28;101308.03;;;7.73;71.25
60465;BME280;46314;52.392;9.758;2023-03-04T11:11:58;101302.16;;;7.59;72.30
60465;BME280;46314;52.392;9.758;2023-03-04T11:14:28;101303.22;;;7.53;70.29
60465;BME280;46314;52.392;9.758;2023-03-04T11:16:58;101310.00;;;7.40;70.57
60465;BME280;46314;52.392;9.758;2023-03-04T11:19:29;101310.06;;;7.13;69.66
60465;BME280;46314;52.392;9.758;2023-03-04T11:21:57;101310.75;;;8.15;66.98
60465;BME280;46314;52.392;9.758;2023-03-04T11:24:27;101306.41;;;7.39;69.10
60465;BME280;46314;52.392;9.758;2023-03-04T11:27:00;101296.66;;;8.17;67.79
60465;BME280;46314;52.392;9.758;2023-03-04T11:29:30;101298.34;;;7.70;69.34
60465;BME280;46314;52.392;9.758;2023-03-04T11:32:04;101301.03;;;8.03;67.80
60465;BME280;46314;52.392;9.758;2023-03-04T11:34:37;101294.09;;;8.00;67.94
60465;BME280;46314;52.392;9.758;2023-03-04T11:37:07;101295.34;;;7.77;68.55
60465;BME280;46314;52.392;9.758;2023-03-04T11:39:38;101298.41;;;7.81;68.76
60465;BME280;46314;52.392;9.758;2023-03-04T11:42:12;101288.41;;;7.27;70.95
60465;BME280;46314;52.392;9.758;2023-03-04T11:44:42;101289.59;;;7.84;68.58
60465;BME280;46314;52.392;9.758;2023-03-04T11:47:21;101283.69;;;8.23;67.09
60465;BME280;46314;52.392;9.758;2023-03-04T11:50:11;101273.66;;;9.00;64.44
60465;BME280;46314;52.392;9.758;2023-03-04T11:53:01;101275.88;;;8.73;64.71
60465;BME280;46314;52.392;9.758;2023-03-04T11:55:37;101283.59;;;7.49;69.73
60465;BME280;46314;52.392;9.758;2023-03-04T11:58:15;101277.53;;;7.52;69.75
60465;BME280;46314;52.392;9.758;2023-03-04T12:00:49;101271.66;;;7.81;70.78
60465;BME280;46314;52.392;9.758;2023-03-04T12:03:47;101264.13;;;8.34;68.26
60465;BME280;46314;52.392;9.758;2023-03-04T12:06:25;101274.66;;;7.80;68.32
60465;BME280;46314;52.392;9.758;2023-03-04T12:09:14;101258.19;;;8.84;65.79
60465;BME280;46314;52.392;9.758;2023-03-04T12:11:54;101259.16;;;8.37;63.29
60465;BME280;46314;52.392;9.758;2023-03-04T12:16:04;101246.44;;;8.36;63.58
60465;BME280;46314;52.392;9.758;2023-03-04T12:18:44;101250.13;;;8.62;61.70
60465;BME280;46314;52.392;9.758;2023-03-04T12:21:24;101247.38;;;8.57;62.35
60465;BME280;46314;52.392;9.758;2023-03-04T13:22:50;101223.94;;;7.06;67.78
60465;BME280;46314;52.392;9.758;2023-03-04T13:25:34;101210.72;;;7.50;66.77
60465;BME280;46314;52.392;9.758;2023-03-04T13:28:15;101216.13;;;7.88;64.45
60465;BME280;46314;52.392;9.758;2023-03-04T13:31:10;101221.75;;;8.08;62.91
60465;BME280;46314;52.392;9.758;2023-03-04T13:33:58;101215.16;;;8.14;62.06
60465;BME280;46314;52.392;9.758;2023-03-04T13:36:28;101218.88;;;8.56;59.70
60465;BME280;46314;52.392;9.758;2023-03-04T13:38:57;101219.66;;;8.41;59.89
60465;BME280;46314;52.392;9.758;2023-03-04T13:41:28;101221.50;;;8.10;59.22
60465;BME280;46314;52.392;9.758;2023-03-04T13:43:56;101219.06;;;8.29;57.75
60465;BME280;46314;52.392;9.758;2023-03-04T13:46:39;101213.47;;;8.08;57.76
60465;BME280;46314;52.392;9.758;2023-03-04T13:49:07;101219.53;;;8.10;56.65
60465;BME280;46314;52.392;9.758;2023-03-04T13:51:34;101229.72;;;8.00;57.33
60465;BME280;46314;52.392;9.758;2023-03-04T13:54:13;101231.25;;;7.70;57.71
60465;BME280;46314;52.392;9.758;2023-03-04T13:56:40;101218.72;;;8.10;57.75
60465;BME280;46314;52.392;9.758;2023-03-04T13:59:26;101221.88;;;7.71;57.95
60465;BME280;46314;52.392;9.758;2023-03-04T14:01:57;101213.19;;;8.10;58.72
60465;BME280;46314;52.392;9.758;2023-03-04T14:04:28;101211.34;;;8.36;57.93
60465;BME280;46314;52.392;9.758;2023-03-04T14:06:56;101206.72;;;7.78;58.86
60465;BME280;46314;52.392;9.758;2023-03-04T14:09:26;101219.44;;;8.63;56.90